Blue Springs, Mississippi
Current Conditions -  °F | °C
As of 10:53 PM on Saturday 22 Nov 2014 (Local Time) from KTUP Reporting Station
Overcast Overcast  
Wind Chill: 61°   Ceiling: 2500
Heat Index: 61°   Visibility: 10mi
Dew Point: 50°   Wind: 12mph
Humidity: 67%   Direction: 160°SSE
Pressure: 30"   Gusts: NA
Location:  34.4°N, 88.87°W
Report Text: KTUP 230453Z 16010KT 10SM BKN025 OVC031 16/10 A3000 RMK AO2 SLP156 T01610100 $
Loading
Personal Weather Stations






























Interactive Weather Map New forecast layout! Learn more

10-Day Weather Forecast

Advertisements
Track Severe Weather on mobile